| time (UTC) | temp C | wind direction | speed KPH | gust KPH | rain 1hr cm | rain 24hr cm | rain mn cm | humidity % | barometer mb |
| 20260507095518 | 10 | 26 | 0.0 | 3.2 | 0.00 | 0.05 | 0.03 | 86 | 1019.9 |
| 20260507094607 | 10 | 0.0 | 0.0 | 0.00 | 0.05 | 0.03 | 88 | 1019.7 | |
| 20260507093518 | 10 | 313 | 3.2 | 12.9 | 0.00 | 0.05 | 0.03 | 87 | 1019.6 |
| 20260507092526 | 10 | 256 | 4.8 | 16.1 | 0.00 | 0.05 | 0.03 | 86 | 1019.6 |
| 20260507091517 | 10 | 255 | 1.6 | 8.0 | 0.00 | 0.05 | 0.03 | 85 | 1019.4 |
| 20260507090525 | 10 | 255 | 3.2 | 12.9 | 0.00 | 0.05 | 0.03 | 86 | 1019.3 |
| 20260507085537 | 10 | 321 | 4.8 | 12.9 | 0.00 | 0.05 | 0.03 | 87 | 1019.2 |
| 20260507084525 | 10 | 289 | 3.2 | 8.0 | 0.00 | 0.05 | 0.03 | 87 | 1019.2 |
| 20260507083517 | 10 | 317 | 1.6 | 8.0 | 0.00 | 0.05 | 0.03 | 88 | 1019.3 |
| 20260507082545 | 10 | 313 | 3.2 | 8.0 | 0.00 | 0.05 | 0.03 | 89 | 1019.2 |
| 20260507081517 | 10 | 327 | 4.8 | 12.9 | 0.00 | 0.05 | 0.03 | 89 | 1019.0 |
| 20260507080525 | 10 | 324 | 0.0 | 8.0 | 0.00 | 0.05 | 0.03 | 89 | 1019.0 |
| 20260507075517 | 10 | 304 | 1.6 | 12.9 | 0.00 | 0.05 | 0.03 | 88 | 1019.0 |
| 20260507074525 | 10 | 300 | 6.4 | 12.9 | 0.00 | 0.05 | 0.03 | 86 | 1018.7 |
| 20260507073516 | 10 | 291 | 4.8 | 12.9 | 0.00 | 0.05 | 0.03 | 85 | 1018.6 |
| 20260507072524 | 10 | 340 | 6.4 | 16.1 | 0.00 | 0.05 | 0.03 | 84 | 1018.3 |
| 20260507071517 | 10 | 279 | 4.8 | 16.1 | 0.00 | 0.05 | 0.03 | 85 | 1018.3 |
| 20260507070525 | 10 | 264 | 4.8 | 12.9 | 0.00 | 0.05 | 0.03 | 85 | 1018.3 |
| 20260507065516 | 10 | 273 | 4.8 | 16.1 | 0.00 | 0.05 | 0.03 | 85 | 1018.0 |
| 20260507064524 | 10 | 266 | 3.2 | 12.9 | 0.00 | 0.05 | 0.03 | 86 | 1018.1 |
| 20260507063531 | 10 | 305 | 3.2 | 12.9 | 0.00 | 0.05 | 0.03 | 86 | 1017.9 |
| 20260507062522 | 10 | 278 | 3.2 | 12.9 | 0.00 | 0.05 | 0.03 | 86 | 1017.9 |
| 20260507061530 | 10 | 273 | 4.8 | 16.1 | 0.00 | 0.05 | 0.03 | 87 | 1017.9 |
| 20260507060543 | 10 | 266 | 3.2 | 12.9 | 0.00 | 0.05 | 0.03 | 87 | 1017.7 |
| 20260507055531 | 10 | 253 | 4.8 | 12.9 | 0.00 | 0.05 | 0.03 | 87 | 1017.7 |
| 20260507054543 | 10 | 262 | 3.2 | 12.9 | 0.00 | 0.05 | 0.03 | 88 | 1017.5 |
| 20260507053530 | 9 | 324 | 4.8 | 12.9 | 0.00 | 0.05 | 0.03 | 87 | 1017.3 |
| 20260507052522 | 9 | 315 | 4.8 | 12.9 | 0.00 | 0.05 | 0.03 | 88 | 1017.2 |
| 20260507051531 | 9 | 306 | 4.8 | 12.9 | 0.00 | 0.05 | 0.03 | 88 | 1017.1 |
| 20260507050522 | 9 | 295 | 3.2 | 12.9 | 0.00 | 0.05 | 0.03 | 89 | 1017.0 |
| 20260507045551 | 9 | 309 | 6.4 | 16.1 | 0.00 | 0.05 | 0.03 | 89 | 1016.7 |
| 20260507044523 | 9 | 321 | 6.4 | 16.1 | 0.00 | 0.05 | 0.03 | 89 | 1016.7 |
| 20260507043530 | 9 | 316 | 9.7 | 24.1 | 0.00 | 0.05 | 0.03 | 90 | 1016.6 |
| 20260507042543 | 9 | 314 | 8.0 | 16.1 | 0.00 | 0.05 | 0.03 | 91 | 1016.5 |
| 20260507041551 | 9 | 319 | 8.0 | 16.1 | 0.00 | 0.05 | 0.03 | 92 | 1016.3 |
| 20260507040542 | 8 | 307 | 4.8 | 12.9 | 0.00 | 0.05 | 0.03 | 93 | 1016.3 |
| 20260507035530 | 8 | 298 | 6.4 | 16.1 | 0.00 | 0.05 | 0.03 | 93 | 1016.3 |
| 20260507034543 | 9 | 299 | 4.8 | 12.9 | 0.00 | 0.05 | 0.03 | 93 | 1016.2 |
| 20260507033530 | 9 | 316 | 3.2 | 8.0 | 0.00 | 0.05 | 0.03 | 94 | 1016.3 |
| 20260507032522 | 9 | 304 | 4.8 | 16.1 | 0.00 | 0.05 | 0.03 | 94 | 1016.3 |
| 20260507031530 | 9 | 299 | 4.8 | 12.9 | 0.00 | 0.05 | 0.03 | 94 | 1016.1 |
| 20260507030603 | 9 | 295 | 3.2 | 12.9 | 0.00 | 0.05 | 0.03 | 95 | 1016.0 |
| 20260507025530 | 9 | 284 | 3.2 | 12.9 | 0.03 | 0.05 | 0.03 | 95 | 1016.0 |
| 20260507024543 | 9 | 274 | 3.2 | 12.9 | 0.03 | 0.05 | 0.03 | 94 | 1016.0 |
| 20260507023530 | 9 | 0.0 | 0.0 | 0.03 | 0.05 | 0.03 | 94 | 1016.0 | |
| 20260507022522 | 9 | 291 | 4.8 | 12.9 | 0.03 | 0.05 | 0.03 | 94 | 1016.1 |
| 20260507021530 | 9 | 290 | 3.2 | 12.9 | 0.03 | 0.05 | 0.03 | 93 | 1015.8 |
| 20260507020522 | 9 | 314 | 3.2 | 8.0 | 0.03 | 0.05 | 0.03 | 93 | 1015.8 |
| 20260507015530 | 9 | 306 | 4.8 | 12.9 | 0.00 | 0.03 | 0.00 | 92 | 1015.7 |
| 20260507014522 | 9 | 301 | 3.2 | 12.9 | 0.00 | 0.03 | 0.00 | 92 | 1015.6 |
| 20260507013530 | 9 | 314 | 3.2 | 12.9 | 0.00 | 0.03 | 0.00 | 91 | 1015.6 |
| 20260507012522 | 10 | 311 | 6.4 | 16.1 | 0.00 | 0.03 | 0.00 | 91 | 1015.5 |
| 20260507011530 | 10 | 290 | 4.8 | 12.9 | 0.00 | 0.03 | 0.00 | 90 | 1015.6 |
| 20260507010522 | 10 | 325 | 8.0 | 16.1 | 0.00 | 0.03 | 0.00 | 87 | 1015.4 |
| 20260507005551 | 10 | 301 | 4.8 | 12.9 | 0.00 | 0.03 | 0.00 | 85 | 1015.4 |
| 20260507004522 | 10 | 320 | 8.0 | 16.1 | 0.00 | 0.03 | 0.00 | 84 | 1015.4 |
| 20260507003530 | 10 | 328 | 4.8 | 12.9 | 0.00 | 0.03 | 0.00 | 84 | 1015.3 |
| 20260507002522 | 10 | 340 | 6.4 | 16.1 | 0.00 | 0.03 | 0.00 | 84 | 1015.2 |
| 20260507001530 | 10 | 320 | 4.8 | 12.9 | 0.00 | 0.03 | 0.00 | 85 | 1015.4 |
| 20260507000522 | 10 | 331 | 6.4 | 16.1 | 0.00 | 0.03 | 0.00 | 85 | 1015.4 |
| 20260506235530 | 10 | 313 | 4.8 | 16.1 | 0.00 | 0.03 | 0.00 | 85 | 1015.4 |
| 20260506234522 | 10 | 324 | 6.4 | 16.1 | 0.00 | 0.03 | 0.00 | 84 | 1015.3 |
| 20260506233530 | 11 | 295 | 6.4 | 16.1 | 0.00 | 0.03 | 0.00 | 85 | 1015.1 |
| 20260506232522 | 11 | 305 | 4.8 | 12.9 | 0.00 | 0.03 | 0.00 | 85 | 1015.1 |
| 20260506231530 | 11 | 320 | 4.8 | 16.1 | 0.00 | 0.03 | 0.00 | 85 | 1015.0 |
| 20260506230522 | 11 | 337 | 4.8 | 12.9 | 0.00 | 0.08 | 0.00 | 86 | 1015.0 |
| 20260506225530 | 11 | 311 | 3.2 | 12.9 | 0.00 | 0.08 | 0.00 | 86 | 1014.8 |
| 20260506224522 | 11 | 306 | 3.2 | 12.9 | 0.00 | 0.08 | 0.00 | 86 | 1014.7 |
| 20260506223530 | 11 | 318 | 3.2 | 12.9 | 0.00 | 0.08 | 0.00 | 86 | 1014.7 |
| 20260506222522 | 11 | 313 | 4.8 | 12.9 | 0.00 | 0.08 | 0.00 | 87 | 1014.7 |
| 20260506221550 | 11 | 337 | 6.4 | 12.9 | 0.00 | 0.08 | 0.00 | 86 | 1014.7 |
| 20260506220522 | 11 | 334 | 4.8 | 12.9 | 0.00 | 0.08 | 0.00 | 87 | 1014.6 |
| 20260506215528 | 11 | 314 | 4.8 | 12.9 | 0.00 | 0.08 | 0.08 | 86 | 1014.4 |
| 20260506214520 | 11 | 319 | 4.8 | 16.1 | 0.00 | 0.08 | 0.08 | 87 | 1014.4 |
| 20260506213528 | 11 | 307 | 4.8 | 12.9 | 0.00 | 0.08 | 0.08 | 87 | 1014.4 |
| 20260506212520 | 11 | 303 | 3.2 | 12.9 | 0.00 | 0.08 | 0.08 | 87 | 1014.3 |
| 20260506211528 | 11 | 266 | 4.8 | 12.9 | 0.00 | 0.08 | 0.08 | 87 | 1014.3 |
| 20260506210520 | 11 | 276 | 1.6 | 8.0 | 0.00 | 0.08 | 0.08 | 86 | 1014.2 |
| 20260506205528 | 11 | 309 | 4.8 | 12.9 | 0.00 | 0.08 | 0.08 | 86 | 1014.2 |
| 20260506204540 | 11 | 300 | 6.4 | 12.9 | 0.00 | 0.08 | 0.08 | 86 | 1014.1 |
| 20260506203528 | 11 | 286 | 6.4 | 20.9 | 0.00 | 0.08 | 0.08 | 86 | 1013.8 |
| 20260506202520 | 11 | 302 | 6.4 | 16.1 | 0.00 | 0.08 | 0.08 | 87 | 1013.8 |
| 20260506201548 | 12 | 308 | 4.8 | 12.9 | 0.00 | 0.08 | 0.08 | 87 | 1013.7 |
| 20260506200519 | 12 | 281 | 6.4 | 16.1 | 0.00 | 0.08 | 0.08 | 87 | 1013.7 |
| 20260506195548 | 12 | 271 | 8.0 | 20.9 | 0.00 | 0.08 | 0.08 | 88 | 1013.6 |
| 20260506194519 | 12 | 271 | 6.4 | 12.9 | 0.00 | 0.08 | 0.08 | 88 | 1013.3 |
| 20260506193528 | 12 | 244 | 3.2 | 8.0 | 0.00 | 0.08 | 0.08 | 88 | 1013.3 |
| 20260506190430 | 12 | 262 | 3.2 | 8.0 | 0.00 | 0.08 | 0.08 | 88 | 998.4 |
| 20260506185450 | 12 | 277 | 8.0 | 16.1 | 0.00 | 0.08 | 0.08 | 88 | 998.2 |
| 20260506184330 | 12 | 310 | 9.7 | 24.1 | 0.00 | 0.08 | 0.08 | 88 | 998.1 |
| 20260506183443 | 12 | 325 | 11.3 | 20.9 | 0.00 | 0.08 | 0.08 | 87 | 998.0 |
| 20260506182325 | 12 | 351 | 6.4 | 12.9 | 0.00 | 0.08 | 0.08 | 88 | 997.9 |
| 20260506181350 | 12 | 325 | 9.7 | 20.9 | 0.03 | 0.08 | 0.08 | 88 | 998.1 |
| 20260506180350 | 12 | 331 | 8.0 | 16.1 | 0.03 | 0.08 | 0.08 | 89 | 998.0 |
| 20260506175416 | 12 | 338 | 8.0 | 16.1 | 0.03 | 0.08 | 0.08 | 89 | 997.8 |
| 20260506174330 | 13 | 322 | 8.0 | 16.1 | 0.03 | 0.08 | 0.08 | 90 | 997.6 |
| 20260506173330 | 13 | 313 | 6.4 | 12.9 | 0.03 | 0.08 | 0.08 | 89 | 997.4 |
| 20260506172649 | 13 | 299 | 9.7 | 16.1 | 0.03 | 0.08 | 0.08 | 88 | 997.4 |
| 20260506171353 | 13 | 327 | 8.0 | 16.1 | 0.00 | 0.05 | 0.05 | 87 | 997.4 |
| 20260506170604 | 14 | 308 | 9.7 | 16.1 | 0.00 | 0.05 | 0.05 | 87 | 997.4 |
| 20260506165416 | 14 | 262 | 8.0 | 12.9 | 0.00 | 0.05 | 0.05 | 87 | 997.1 |
| 20260506164610 | 15 | 264 | 14.5 | 16.1 | 0.00 | 0.05 | 0.05 | 86 | 997.1 |
| 20260506163310 | 15 | 262 | 9.7 | 20.9 | 0.00 | 0.10 | 0.05 | 83 | 997.1 |
| 20260506162316 | 15 | 295 | 8.0 | 12.9 | 0.00 | 0.10 | 0.05 | 76 | 997.2 |
| 20260506161416 | 15 | 262 | 9.7 | 16.1 | 0.00 | 0.10 | 0.05 | 76 | 997.2 |
| 20260506160349 | 16 | 272 | 11.3 | 20.9 | 0.00 | 0.10 | 0.05 | 76 | 997.3 |
| 20260506155650 | 16 | 254 | 8.0 | 16.1 | 0.00 | 0.10 | 0.05 | 73 | 997.2 |
| 20260506154329 | 16 | 268 | 11.3 | 24.1 | 0.00 | 0.10 | 0.05 | 72 | 997.1 |
| 20260506153330 | 16 | 256 | 12.9 | 20.9 | 0.00 | 0.10 | 0.05 | 70 | 997.0 |
| 20260506152330 | 17 | 272 | 12.9 | 20.9 | 0.00 | 0.10 | 0.05 | 69 | 996.9 |
| 20260506151429 | 17 | 283 | 14.5 | 16.1 | 0.00 | 0.13 | 0.05 | 68 | 996.9 |
| 20260506150409 | 17 | 237 | 4.8 | 12.9 | 0.00 | 0.18 | 0.05 | 66 | 996.8 |
| 20260506145330 | 17 | 229 | 8.0 | 20.9 | 0.00 | 0.20 | 0.05 | 65 | 996.7 |
| 20260506144315 | 18 | 234 | 6.4 | 12.9 | 0.00 | 0.30 | 0.05 | 65 | 996.8 |
| 20260506143556 | 18 | 240 | 8.0 | 16.1 | 0.00 | 0.64 | 0.05 | 64 | 996.7 |
| 20260506142355 | 18 | 220 | 8.0 | 16.1 | 0.00 | 0.84 | 0.05 | 61 | 996.7 |
| 20260506141330 | 18 | 196 | 9.7 | 16.1 | 0.00 | 0.89 | 0.05 | 62 | 996.9 |
| 20260506140329 | 18 | 231 | 8.0 | 16.1 | 0.00 | 0.89 | 0.05 | 62 | 996.5 |
| 20260506135350 | 18 | 220 | 8.0 | 24.1 | 0.00 | 0.89 | 0.05 | 59 | 996.6 |
| 20260506134329 | 18 | 230 | 8.0 | 20.9 | 0.00 | 0.89 | 0.05 | 60 | 996.6 |
| 20260506133315 | 18 | 225 | 9.7 | 20.9 | 0.00 | 0.89 | 0.05 | 60 | 996.6 |
| 20260506132309 | 18 | 239 | 8.0 | 12.9 | 0.00 | 0.89 | 0.05 | 61 | 996.6 |
| 20260506131349 | 18 | 206 | 9.7 | 12.9 | 0.00 | 0.89 | 0.05 | 63 | 996.9 |
| 20260506130349 | 18 | 204 | 11.3 | 24.1 | 0.00 | 0.89 | 0.05 | 62 | 996.6 |
| 20260506125437 | 17 | 195 | 17.7 | 27.4 | 0.00 | 0.89 | 0.05 | 63 | 996.6 |
| 20260506124349 | 17 | 196 | 8.0 | 20.9 | 0.00 | 0.89 | 0.05 | 64 | 996.7 |
| 20260506123329 | 17 | 240 | 4.8 | 8.0 | 0.00 | 0.89 | 0.05 | 65 | 996.9 |
| 20260506122429 | 17 | 260 | 11.3 | 16.1 | 0.00 | 0.89 | 0.05 | 64 | 996.6 |
| 20260506121315 | 17 | 188 | 8.0 | 16.1 | 0.00 | 0.89 | 0.05 | 64 | 996.9 |
| 20260506120329 | 17 | 212 | 9.7 | 12.9 | 0.00 | 0.89 | 0.05 | 65 | 996.6 |
| 20260506115249 | 17 | 218 | 11.3 | 20.9 | 0.00 | 0.89 | 0.05 | 64 | 996.9 |
| 20260506114349 | 17 | 274 | 4.8 | 8.0 | 0.00 | 0.89 | 0.05 | 65 | 996.8 |
| 20260506113416 | 17 | 215 | 6.4 | 16.1 | 0.00 | 0.89 | 0.05 | 66 | 996.9 |
| 20260506112310 | 17 | 226 | 6.4 | 20.9 | 0.00 | 0.89 | 0.05 | 67 | 996.9 |
| 20260506111249 | 17 | 204 | 12.9 | 24.1 | 0.00 | 0.89 | 0.05 | 66 | 997.0 |
| 20260506110249 | 17 | 204 | 6.4 | 12.9 | 0.00 | 0.89 | 0.05 | 68 | 996.8 |
| 20260506105249 | 17 | 238 | 8.0 | 16.1 | 0.00 | 0.89 | 0.05 | 66 | 997.0 |
| 20260506104729 | 17 | 240 | 8.0 | 16.1 | 0.00 | 0.89 | 0.05 | 65 | 996.9 |
| 20260506103329 | 17 | 221 | 4.8 | 8.0 | 0.00 | 0.89 | 0.05 | 66 | 997.2 |
| 20260506102309 | 17 | 193 | 9.7 | 16.1 | 0.00 | 0.89 | 0.05 | 65 | 997.1 |
| 20260506101309 | 17 | 225 | 14.5 | 27.4 | 0.00 | 0.89 | 0.05 | 65 | 997.1 |
| 20260506100309 | 16 | 224 | 9.7 | 16.1 | 0.00 | 0.89 | 0.05 | 68 | 997.1 |